createdAt,value
2022-11-21T00:00:23.203Z,2.1
2022-11-21T00:05:28.448Z,2.1
2022-11-21T00:10:17.307Z,2.1
2022-11-21T00:15:23.437Z,2.1
2022-11-21T00:20:29.520Z,2.1
2022-11-21T00:25:18.515Z,2.2
2022-11-21T00:30:24.774Z,2.2
2022-11-21T00:35:31.381Z,2.3
2022-11-21T00:40:19.763Z,2.4
2022-11-21T00:45:25.727Z,2.5
2022-11-21T00:50:31.765Z,2.5
2022-11-21T00:55:20.860Z,2.6
2022-11-21T01:00:27.143Z,2.7
2022-11-21T01:05:32.328Z,2.7
2022-11-21T01:10:21.933Z,2.8
2022-11-21T01:15:27.995Z,2.8
2022-11-21T01:20:17.267Z,2.9
2022-11-21T01:25:23.122Z,2.9
2022-11-21T01:30:29.252Z,2.9
2022-11-21T01:35:18.193Z,3.0
2022-11-21T01:40:24.378Z,3.0
2022-11-21T01:45:30.385Z,3.1
2022-11-21T01:50:19.385Z,3.1
2022-11-21T01:55:25.487Z,3.1
2022-11-21T02:00:32.274Z,3.2
2022-11-21T02:05:20.016Z,3.2
2022-11-21T02:10:25.721Z,3.3
2022-11-21T02:15:32.109Z,3.2
2022-11-21T02:20:20.887Z,3.3
2022-11-21T02:25:26.884Z,3.3
2022-11-21T02:30:33.082Z,3.4
2022-11-21T02:35:21.941Z,3.4
2022-11-21T02:40:28.072Z,3.4
2022-11-21T02:45:17.089Z,3.4
2022-11-21T02:50:23.172Z,3.4
2022-11-21T02:55:29.156Z,3.4
2022-11-21T03:00:18.439Z,3.4
2022-11-21T03:05:23.667Z,3.5
2022-11-21T03:10:29.540Z,3.5
2022-11-21T03:15:18.556Z,3.6
2022-11-21T03:20:24.685Z,3.7
2022-11-21T03:25:30.720Z,3.7
2022-11-21T03:30:19.708Z,3.6
2022-11-21T03:35:25.846Z,3.6
2022-11-21T03:40:32.291Z,3.6
2022-11-21T03:45:20.922Z,3.7
2022-11-21T03:50:27.043Z,3.7
2022-11-21T03:55:33.045Z,3.7
2022-11-21T04:00:22.133Z,3.7
2022-11-21T04:05:27.443Z,3.7
2022-11-21T04:10:16.286Z,3.6
2022-11-21T04:15:22.348Z,3.6
2022-11-21T04:20:28.412Z,3.6
2022-11-21T04:25:17.478Z,3.6
2022-11-21T04:30:23.615Z,3.6
2022-11-21T04:35:29.672Z,3.6
2022-11-21T04:40:18.809Z,3.5
2022-11-21T04:45:24.689Z,3.5
2022-11-21T04:50:30.751Z,3.5
2022-11-21T04:55:20.320Z,3.4
2022-11-21T05:00:26.055Z,3.4
2022-11-21T05:05:31.291Z,3.5
2022-11-21T05:10:20.865Z,3.5
2022-11-21T05:15:27.094Z,3.5
2022-11-21T05:20:36.729Z,3.5
2022-11-21T05:25:22.059Z,3.5
2022-11-21T05:30:28.126Z,3.5
2022-11-21T05:35:17.168Z,3.6
2022-11-21T05:40:23.225Z,3.6
2022-11-21T05:45:29.350Z,3.6
2022-11-21T05:50:18.210Z,3.6
2022-11-21T05:55:24.417Z,3.6
2022-11-21T06:00:31.677Z,3.5
2022-11-21T06:05:18.952Z,3.5
2022-11-21T06:10:25.705Z,3.5
2022-11-21T06:15:31.763Z,3.5
2022-11-21T06:20:20.895Z,3.5
2022-11-21T06:25:26.891Z,3.5
2022-11-21T06:30:33.042Z,3.5
2022-11-21T06:35:21.945Z,3.5
2022-11-21T06:40:28.034Z,3.6
2022-11-21T06:45:17.086Z,3.6
2022-11-21T06:50:23.160Z,3.6
2022-11-21T06:55:29.210Z,3.6
2022-11-21T07:00:18.379Z,3.7
2022-11-21T07:05:23.658Z,3.7
2022-11-21T07:10:29.567Z,3.7
2022-11-21T07:15:18.392Z,3.7
2022-11-21T07:20:24.527Z,3.7
2022-11-21T07:25:36.288Z,3.7
2022-11-21T07:30:20.402Z,3.8
2022-11-21T07:35:25.657Z,3.8
2022-11-21T07:40:31.838Z,3.8
2022-11-21T07:45:20.756Z,3.7
2022-11-21T07:50:26.739Z,3.8
2022-11-21T07:55:37.651Z,3.8
2022-11-21T08:00:22.115Z,3.8
2022-11-21T08:05:27.217Z,3.8
2022-11-21T08:10:15.952Z,3.8
2022-11-21T08:15:22.070Z,3.8
2022-11-21T08:20:36.306Z,3.8
2022-11-21T08:25:17.161Z,3.8
2022-11-21T08:30:23.152Z,3.8
2022-11-21T08:35:29.272Z,3.9
2022-11-21T08:40:18.465Z,3.8
2022-11-21T08:45:24.506Z,4.1
2022-11-21T08:50:30.483Z,4.1
2022-11-21T08:55:19.504Z,4.0
2022-11-21T09:00:25.665Z,3.9
2022-11-21T09:05:31.902Z,3.9
2022-11-21T09:10:20.574Z,3.9
2022-11-21T09:15:26.626Z,3.9
2022-11-21T09:20:32.835Z,3.9
2022-11-21T09:25:21.754Z,4.0
2022-11-21T09:30:27.835Z,4.0
2022-11-21T09:35:16.841Z,3.9
2022-11-21T09:40:22.990Z,4.0
2022-11-21T09:45:29.208Z,4.1
2022-11-21T09:50:18.009Z,4.1
2022-11-21T09:55:24.129Z,4.2
2022-11-21T10:00:30.875Z,4.2
2022-11-21T10:05:18.525Z,4.3
2022-11-21T10:10:24.142Z,4.3
2022-11-21T10:15:30.270Z,4.3
2022-11-21T10:20:19.544Z,4.2
2022-11-21T10:25:27.319Z,4.3
2022-11-21T10:30:31.337Z,4.3
2022-11-21T10:35:20.453Z,4.3
2022-11-21T10:40:27.343Z,4.4
2022-11-21T10:45:32.772Z,4.6
2022-11-21T10:50:21.555Z,4.7
2022-11-21T10:55:27.622Z,4.7
2022-11-21T11:00:17.039Z,4.7
2022-11-21T11:05:22.165Z,4.7
2022-11-21T11:10:28.728Z,4.9
2022-11-21T11:15:17.456Z,4.9
2022-11-21T11:20:23.665Z,4.9
2022-11-21T11:25:29.575Z,4.8
2022-11-21T11:30:18.596Z,4.6
2022-11-21T11:35:24.752Z,4.6
2022-11-21T11:40:30.834Z,4.5
2022-11-21T11:45:19.767Z,4.5
2022-11-21T11:50:25.912Z,4.5
2022-11-21T11:55:31.947Z,4.4
2022-11-21T12:00:21.133Z,4.4
2022-11-21T12:05:26.640Z,4.3
2022-11-21T12:10:32.087Z,4.3
2022-11-21T12:15:21.122Z,4.6
2022-11-21T12:20:27.237Z,4.7
2022-11-21T12:25:16.262Z,4.6
2022-11-21T12:30:22.566Z,4.5
2022-11-21T12:35:28.369Z,4.3
2022-11-21T12:40:17.510Z,4.4
2022-11-21T12:45:23.574Z,4.3
2022-11-21T12:50:29.656Z,4.4
2022-11-21T12:55:18.612Z,4.6
2022-11-21T13:00:24.790Z,4.7
2022-11-21T13:05:30.074Z,4.7
2022-11-21T13:10:19.982Z,4.7
2022-11-21T13:15:25.762Z,4.7
2022-11-21T13:20:32.318Z,4.7
2022-11-21T13:25:20.926Z,4.7
2022-11-21T13:30:27.063Z,4.9
2022-11-21T13:35:33.053Z,5.2
2022-11-21T13:40:22.096Z,4.7
2022-11-21T13:45:28.157Z,4.4
2022-11-21T13:50:17.153Z,4.3
2022-11-21T13:55:23.471Z,4.2
2022-11-21T14:00:34.973Z,4.4
2022-11-21T14:05:17.621Z,4.4
2022-11-21T14:10:23.550Z,4.4
2022-11-21T14:15:29.440Z,4.4
2022-11-21T14:20:18.424Z,4.3
2022-11-21T14:25:24.606Z,4.3
2022-11-21T14:30:30.608Z,4.3
2022-11-21T14:35:20.081Z,4.4
2022-11-21T14:40:26.559Z,4.2
2022-11-21T14:45:31.821Z,4.2
2022-11-21T14:50:20.792Z,4.2
2022-11-21T14:55:31.535Z,4.2
2022-11-21T15:01:08.278Z,4.1
2022-11-21T15:05:46.988Z,4.0
2022-11-21T15:10:29.672Z,3.8
2022-11-21T15:15:16.158Z,3.6
2022-11-21T15:20:22.304Z,3.3
2022-11-21T15:25:28.242Z,3.0
2022-11-21T15:30:17.285Z,2.8
2022-11-21T15:35:29.023Z,2.5
2022-11-21T15:40:29.460Z,2.4
2022-11-21T15:45:20.501Z,2.2
2022-11-21T15:50:24.552Z,2.0
2022-11-21T15:55:30.719Z,1.7
2022-11-21T16:00:19.634Z,1.6
2022-11-21T16:05:25.012Z,1.7
2022-11-21T16:10:31.817Z,1.4
2022-11-21T16:15:20.792Z,1.2
2022-11-21T16:20:26.888Z,1.1
2022-11-21T16:25:32.936Z,0.9
2022-11-21T16:30:21.928Z,0.8
2022-11-21T16:35:27.974Z,0.7
2022-11-21T16:40:17.120Z,0.7
2022-11-21T16:45:23.107Z,0.5
2022-11-21T16:50:29.227Z,0.3
2022-11-21T16:55:18.252Z,0.5
2022-11-21T17:00:24.300Z,0.8
2022-11-21T17:05:30.445Z,0.4
2022-11-21T17:10:19.591Z,0.1
2022-11-21T17:15:25.325Z,-0.1
2022-11-21T17:20:31.619Z,-0.3
2022-11-21T17:25:20.696Z,-0.2
2022-11-21T17:30:26.662Z,-0.1
2022-11-21T17:35:16.375Z,0.3
2022-11-21T17:40:21.709Z,0.2
2022-11-21T17:45:27.645Z,0.1
2022-11-21T17:50:16.726Z,0.3
2022-11-21T17:55:22.854Z,0.2
2022-11-21T18:00:29.544Z,-0.1
2022-11-21T18:05:17.153Z,-0.0
2022-11-21T18:10:42.169Z,0.4
2022-11-21T18:15:29.059Z,0.2
2022-11-21T18:20:18.181Z,0.1
2022-11-21T18:25:24.191Z,0.0
2022-11-21T18:30:30.183Z,0.1
2022-11-21T18:35:19.255Z,0.0
2022-11-21T18:40:25.356Z,-0.1
2022-11-21T18:45:31.444Z,-0.1
2022-11-21T18:50:20.359Z,-0.1
2022-11-21T18:55:26.494Z,-0.3
2022-11-21T19:00:32.638Z,-0.2
2022-11-21T19:05:20.971Z,-0.4
2022-11-21T19:10:42.748Z,-0.4
2022-11-21T19:15:16.678Z,-0.4
2022-11-21T19:20:22.813Z,-0.3
2022-11-21T19:25:29.096Z,-0.4
2022-11-21T19:30:17.761Z,-0.5
2022-11-21T19:35:23.857Z,-0.6
2022-11-21T19:40:29.980Z,-0.7
2022-11-21T19:45:18.967Z,-0.7
2022-11-21T19:50:24.984Z,-0.7
2022-11-21T19:55:31.076Z,-0.9
2022-11-21T20:00:20.490Z,-0.9
2022-11-21T20:05:25.953Z,-0.9
2022-11-21T20:10:32.301Z,-0.9
2022-11-21T20:15:21.321Z,-0.9
2022-11-21T20:20:27.369Z,-1.0
2022-11-21T20:25:16.427Z,-1.0
2022-11-21T20:30:22.449Z,-1.0
2022-11-21T20:35:28.536Z,-0.9
2022-11-21T20:40:17.829Z,-1.1
2022-11-21T20:46:09.712Z,-1.2
2022-11-21T20:51:14.757Z,-1.4
2022-11-21T20:55:18.725Z,-1.4
2022-11-21T21:00:24.895Z,-1.3
2022-11-21T21:05:30.319Z,-1.3
2022-11-21T21:10:18.889Z,-1.4
2022-11-21T21:15:24.982Z,-1.4
2022-11-21T21:20:36.341Z,-1.5
2022-11-21T21:25:20.319Z,-1.4
2022-11-21T21:30:26.175Z,-1.4
2022-11-21T21:35:32.285Z,-1.3
2022-11-21T21:40:21.418Z,-1.4
2022-11-21T21:45:27.295Z,-1.5
2022-11-21T21:50:16.387Z,-1.5
2022-11-21T21:55:22.443Z,-1.6
2022-11-21T22:00:28.522Z,-1.5
2022-11-21T22:05:17.898Z,-1.5
2022-11-21T22:10:23.573Z,-1.5
2022-11-21T22:15:29.569Z,-1.6
2022-11-21T22:20:18.658Z,-1.6
2022-11-21T22:25:24.622Z,-1.7
2022-11-21T22:30:30.671Z,-1.7
2022-11-21T22:35:19.777Z,-1.8
2022-11-21T22:40:25.921Z,-1.8
2022-11-21T22:45:32.168Z,-1.8
2022-11-21T22:50:20.927Z,-1.8
2022-11-21T22:55:27.057Z,-1.8
2022-11-21T23:00:21.786Z,-1.8
2022-11-21T23:05:21.998Z,-1.8
2022-11-21T23:10:27.220Z,-1.7
2022-11-21T23:15:16.233Z,-1.6
2022-11-21T23:20:22.313Z,-1.7
2022-11-21T23:25:28.415Z,-1.6
2022-11-21T23:30:17.358Z,-1.6
2022-11-21T23:35:23.444Z,-1.3
2022-11-21T23:40:29.576Z,-0.9
2022-11-21T23:45:18.519Z,-0.8
2022-11-21T23:50:24.643Z,-0.9
2022-11-21T23:55:31.551Z,-0.9
